Time;durP1;ratioP1;P1;durP2;ratioP2;P2;SDS_P1;SDS_P2;PMS_P1;PMS_P2;Temp;Humidity;BMP_temperature;BMP_pressure;BME280_temperature;BME280_humidity;BME280_pressure;Samples;Min_cycle;Max_cycle;Signal;HPM_P1;HPM_P2
2023/03/21 00:01:43;;;;;;;12.52;8.60;;;;;;;;;;5052554;28;20469;-59
2023/03/21 00:04:09;;;;;;;12.23;8.13;;;;;;;;;;5052257;28;20025;-58
2023/03/21 00:06:35;;;;;;;11.30;8.20;;;;;;;;;;5046950;28;20025;-57
2023/03/21 00:09:01;;;;;;;13.57;8.20;;;;;;;;;;5051576;28;20052;-58
2023/03/21 00:11:27;;;;;;;11.05;7.90;;;;;;;;;;5043968;28;20112;-59
2023/03/21 00:13:57;;;;;;;12.00;8.00;;;;;;;;;;5032750;28;20060;-59
2023/03/21 00:16:22;;;;;;;11.38;7.63;;;;;;;;;;5032407;28;20030;-60
2023/03/21 00:18:53;;;;;;;10.70;7.80;;;;;;;;;;5032745;28;20056;-58
2023/03/21 00:21:27;;;;;;;11.85;7.82;;;;;;;;;;5032342;28;20401;-59
2023/03/21 00:23:54;;;;;;;14.38;8.25;;;;;;;;;;5032711;28;20025;-59
2023/03/21 00:26:21;;;;;;;13.93;8.00;;;;;;;;;;5047656;28;20022;-59
2023/03/21 00:28:47;;;;;;;12.20;8.23;;;;;;;;;;5032284;28;20462;-58
2023/03/21 00:31:13;;;;;;;16.55;9.15;;;;;;;;;;5032165;28;20524;-59
2023/03/21 00:33:38;;;;;;;9.25;7.65;;;;;;;;;;5032576;28;20029;-60
2023/03/21 00:36:05;;;;;;;12.05;7.45;;;;;;;;;;5030921;28;20083;-59
2023/03/21 00:38:31;;;;;;;11.00;7.50;;;;;;;;;;5032072;28;20111;-59
2023/03/21 00:40:56;;;;;;;12.25;8.30;;;;;;;;;;5032243;28;20066;-59
2023/03/21 00:43:28;;;;;;;13.23;8.10;;;;;;;;;;5032214;28;20029;-59
2023/03/21 00:45:55;;;;;;;12.00;7.63;;;;;;;;;;5031992;28;20029;-60
2023/03/21 00:48:21;;;;;;;10.75;7.88;;;;;;;;;;5032154;28;20032;-59
2023/03/21 00:50:47;;;;;;;12.10;7.78;;;;;;;;;;5031931;28;20052;-59
2023/03/21 00:53:14;;;;;;;10.32;7.80;;;;;;;;;;5032209;28;20021;-58
2023/03/21 00:55:40;;;;;;;9.15;7.03;;;;;;;;;;5032103;28;20534;-59
2023/03/21 00:58:06;;;;;;;9.60;7.47;;;;;;;;;;5032139;28;20040;-60
2023/03/21 01:00:32;;;;;;;10.68;7.70;;;;;;;;;;5031985;28;20104;-59
2023/03/21 01:03:04;;;;;;;11.35;7.05;;;;;;;;;;5032062;28;20025;-60
2023/03/21 01:08:34;;;;;;;9.55;7.00;;;;;;;;;;5029653;28;20468;-60
2023/03/21 01:11:07;;;;;;;10.13;7.35;;;;;;;;;;5034698;28;20045;-59
2023/03/21 01:13:33;;;;;;;13.30;7.72;;;;;;;;;;5051026;28;20036;-59
2023/03/21 01:15:59;;;;;;;9.98;7.22;;;;;;;;;;5054709;28;20033;-60
2023/03/21 01:18:28;;;;;;;12.25;7.55;;;;;;;;;;5055689;28;20108;-60
2023/03/21 01:20:56;;;;;;;11.23;7.38;;;;;;;;;;5055920;28;20082;-59
2023/03/21 01:23:22;;;;;;;9.65;7.85;;;;;;;;;;5055584;28;20025;-61
2023/03/21 01:25:49;;;;;;;11.40;7.38;;;;;;;;;;5054074;28;20025;-59
2023/03/21 01:28:15;;;;;;;9.35;7.40;;;;;;;;;;5054733;28;20029;-59
2023/03/21 01:30:51;;;;;;;10.88;7.53;;;;;;;;;;5053096;28;20059;-59
2023/03/21 01:33:18;;;;;;;9.68;7.03;;;;;;;;;;5054148;28;20435;-59
2023/03/21 01:35:45;;;;;;;10.02;6.95;;;;;;;;;;5054643;28;20362;-64
2023/03/21 01:38:11;;;;;;;9.18;7.45;;;;;;;;;;5052969;28;20099;-60
2023/03/21 01:40:37;;;;;;;11.23;7.20;;;;;;;;;;5053956;28;20115;-59
2023/03/21 01:43:18;;;;;;;8.55;6.72;;;;;;;;;;5053921;28;20017;-59
2023/03/21 01:46:08;;;;;;;8.63;6.90;;;;;;;;;;5054883;28;20442;-60
2023/03/21 01:48:42;;;;;;;9.80;7.30;;;;;;;;;;5054449;28;20106;-59
2023/03/21 01:51:12;;;;;;;9.40;6.65;;;;;;;;;;5054368;28;20025;-60
2023/03/21 01:53:39;;;;;;;9.02;6.65;;;;;;;;;;5053830;28;20052;-60
2023/03/21 01:56:11;;;;;;;8.57;6.57;;;;;;;;;;5054534;28;20405;-60
2023/03/21 01:58:38;;;;;;;10.13;7.18;;;;;;;;;;5055007;28;20075;-60
2023/03/21 02:01:05;;;;;;;12.32;7.00;;;;;;;;;;5055189;28;20366;-59
2023/03/21 02:03:36;;;;;;;8.48;6.68;;;;;;;;;;5055110;28;20028;-60
2023/03/21 02:06:09;;;;;;;11.50;6.97;;;;;;;;;;5054837;28;20025;-60
2023/03/21 02:08:34;;;;;;;8.93;7.15;;;;;;;;;;5054747;28;20033;-60
2023/03/21 02:11:00;;;;;;;9.15;6.70;;;;;;;;;;5054615;28;20036;-59
2023/03/21 02:13:26;;;;;;;9.13;6.82;;;;;;;;;;5054900;28;20033;-59
2023/03/21 02:16:00;;;;;;;9.50;6.65;;;;;;;;;;5054626;28;20056;-60
2023/03/21 02:18:36;;;;;;;9.40;6.57;;;;;;;;;;5054560;28;20029;-60
2023/03/21 02:21:30;;;;;;;8.98;6.65;;;;;;;;;;5054526;28;20025;-59
2023/03/21 02:24:06;;;;;;;8.82;6.20;;;;;;;;;;5054762;28;20060;-59
2023/03/21 02:26:34;;;;;;;9.13;6.50;;;;;;;;;;5054516;28;20385;-59
2023/03/21 02:29:05;;;;;;;10.25;7.05;;;;;;;;;;5054415;28;20021;-60
2023/03/21 02:31:39;;;;;;;9.15;6.70;;;;;;;;;;5054230;28;20032;-60
2023/03/21 02:34:24;;;;;;;8.73;6.72;;;;;;;;;;5054291;28;20355;-60
2023/03/21 02:37:06;;;;;;;8.50;6.70;;;;;;;;;;5054507;28;20119;-59
2023/03/21 02:39:35;;;;;;;8.00;6.15;;;;;;;;;;5054036;28;20053;-59
2023/03/21 02:42:08;;;;;;;8.18;6.07;;;;;;;;;;5054204;28;20037;-60
2023/03/21 02:45:04;;;;;;;8.18;6.00;;;;;;;;;;5069612;28;20025;-59
2023/03/21 02:47:35;;;;;;;9.88;6.95;;;;;;;;;;5054286;28;20204;-60
2023/03/21 02:50:12;;;;;;;;;;;;;;;;;;5054657;28;20450;-59
2023/03/21 02:52:40;;;;;;;9.68;6.45;;;;;;;;;;5054011;28;19948;-59
2023/03/21 02:55:12;;;;;;;7.43;5.88;;;;;;;;;;5053856;28;20079;-59
2023/03/21 02:57:41;;;;;;;8.07;6.28;;;;;;;;;;5053919;28;20032;-59
2023/03/21 03:00:11;;;;;;;8.27;6.30;;;;;;;;;;5054100;28;20029;-59
2023/03/21 03:02:38;;;;;;;9.60;6.70;;;;;;;;;;5053720;28;20021;-59
2023/03/21 03:05:35;;;;;;;8.82;6.45;;;;;;;;;;5053724;28;20033;-60
2023/03/21 03:08:00;;;;;;;8.73;6.47;;;;;;;;;;5053367;28;20045;-59
2023/03/21 03:10:49;;;;;;;8.40;5.95;;;;;;;;;;5053551;28;20035;-59
2023/03/21 03:13:33;;;;;;;8.93;6.15;;;;;;;;;;5053338;28;20458;-59
2023/03/21 03:16:10;;;;;;;8.07;6.20;;;;;;;;;;5053545;28;20100;-60
2023/03/21 03:18:55;;;;;;;8.18;6.10;;;;;;;;;;5053803;28;20037;-59
2023/03/21 03:21:30;;;;;;;9.25;6.25;;;;;;;;;;5053403;28;20086;-60
2023/03/21 03:24:05;;;;;;;7.20;6.00;;;;;;;;;;5053690;28;20029;-60
2023/03/21 03:26:36;;;;;;;9.43;6.13;;;;;;;;;;5053239;28;20035;-59
2023/03/21 03:29:15;;;;;;;8.48;6.35;;;;;;;;;;5053517;28;20025;-59
2023/03/21 03:31:55;;;;;;;8.25;6.15;;;;;;;;;;5053119;28;20586;-60
2023/03/21 03:34:25;;;;;;;7.88;5.95;;;;;;;;;;5053098;28;20037;-59
2023/03/21 03:36:55;;;;;;;8.35;6.28;;;;;;;;;;5051619;28;20078;-59
2023/03/21 03:39:28;;;;;;;10.77;6.70;;;;;;;;;;5052668;28;20645;-61
2023/03/21 03:42:00;;;;;;;8.07;6.03;;;;;;;;;;5053329;28;20087;-58
2023/03/21 03:44:27;;;;;;;8.45;5.97;;;;;;;;;;5052934;28;20544;-59
2023/03/21 03:47:09;;;;;;;9.15;6.38;;;;;;;;;;5052979;28;20469;-60
2023/03/21 03:49:41;;;;;;;8.52;6.22;;;;;;;;;;5052834;28;20021;-59
2023/03/21 03:52:20;;;;;;;8.70;6.25;;;;;;;;;;5053176;28;20033;-60
2023/03/21 03:54:49;;;;;;;6.75;5.45;;;;;;;;;;5052768;28;20029;-59
2023/03/21 03:57:16;;;;;;;10.87;6.57;;;;;;;;;;5053162;28;20029;-59
2023/03/21 03:59:43;;;;;;;8.27;5.90;;;;;;;;;;5052732;28;20033;-60
2023/03/21 04:02:09;;;;;;;7.28;6.20;;;;;;;;;;5052771;28;20032;-59
2023/03/21 04:04:35;;;;;;;9.25;6.07;;;;;;;;;;5052889;28;20032;-59
2023/03/21 04:07:02;;;;;;;7.82;5.63;;;;;;;;;;5052906;28;20060;-60
2023/03/21 04:09:29;;;;;;;8.57;6.28;;;;;;;;;;5052414;28;20469;-61
2023/03/21 04:11:55;;;;;;;7.30;6.18;;;;;;;;;;5052879;28;20094;-59
2023/03/21 04:14:21;;;;;;;8.00;5.93;;;;;;;;;;5052522;28;20036;-59
2023/03/21 04:16:48;;;;;;;7.07;5.63;;;;;;;;;;5052499;28;20106;-59
2023/03/21 04:19:14;;;;;;;8.32;5.80;;;;;;;;;;5052697;28;20029;-59
2023/03/21 04:21:40;;;;;;;7.28;5.53;;;;;;;;;;5052502;28;20175;-60
2023/03/21 04:24:06;;;;;;;6.90;5.72;;;;;;;;;;5052328;28;20079;-59
2023/03/21 04:26:34;;;;;;;7.40;6.00;;;;;;;;;;5052631;28;20025;-59
2023/03/21 04:29:01;;;;;;;7.10;5.82;;;;;;;;;;5052627;28;20416;-59
2023/03/21 04:31:30;;;;;;;7.72;6.00;;;;;;;;;;5052325;28;20025;-59
2023/03/21 04:33:56;;;;;;;9.90;6.25;;;;;;;;;;5052348;28;20025;-59
2023/03/21 04:36:29;;;;;;;8.30;6.00;;;;;;;;;;5052340;28;20031;-59
2023/03/21 04:39:00;;;;;;;8.23;5.60;;;;;;;;;;5052013;28;20124;-62
2023/03/21 04:41:29;;;;;;;6.63;5.55;;;;;;;;;;5052508;28;20056;-60
2023/03/21 04:43:55;;;;;;;7.97;6.03;;;;;;;;;;5052122;28;20032;-61
2023/03/21 04:46:22;;;;;;;7.35;5.60;;;;;;;;;;5052155;28;20029;-60
2023/03/21 04:48:47;;;;;;;7.47;5.80;;;;;;;;;;5053013;28;20029;-60
2023/03/21 04:51:14;;;;;;;8.30;5.65;;;;;;;;;;5056194;28;20082;-60
2023/03/21 04:53:43;;;;;;;6.93;6.20;;;;;;;;;;5054875;28;20025;-59
2023/03/21 04:56:10;;;;;;;7.25;5.80;;;;;;;;;;5056130;28;20051;-60
2023/03/21 04:58:36;;;;;;;8.20;6.00;;;;;;;;;;5056041;28;20127;-62
2023/03/21 05:01:04;;;;;;;6.20;5.22;;;;;;;;;;5056070;28;20104;-61
2023/03/21 05:03:33;;;;;;;7.47;5.43;;;;;;;;;;5055969;28;20025;-59
2023/03/21 05:05:59;;;;;;;6.78;5.75;;;;;;;;;;5055922;28;20028;-59
2023/03/21 05:08:26;;;;;;;8.05;5.82;;;;;;;;;;5056185;28;20074;-59
2023/03/21 05:10:51;;;;;;;7.70;5.43;;;;;;;;;;5056092;28;20036;-60
2023/03/21 05:13:17;;;;;;;6.57;5.55;;;;;;;;;;5056141;28;20021;-61
2023/03/21 05:15:42;;;;;;;6.90;5.80;;;;;;;;;;5055794;28;20025;-59
2023/03/21 05:18:11;;;;;;;6.70;5.40;;;;;;;;;;5055731;28;20108;-59
2023/03/21 05:20:43;;;;;;;6.15;5.30;;;;;;;;;;5055699;28;20017;-59
2023/03/21 05:23:10;;;;;;;6.97;5.95;;;;;;;;;;5055761;28;20040;-59
2023/03/21 05:25:38;;;;;;;8.23;5.63;;;;;;;;;;5055530;28;20029;-60
2023/03/21 05:28:06;;;;;;;6.18;5.38;;;;;;;;;;5071027;28;20076;-60
2023/03/21 05:30:32;;;;;;;7.13;5.57;;;;;;;;;;5055325;28;20024;-59
2023/03/21 05:32:59;;;;;;;7.25;5.18;;;;;;;;;;5055802;28;20052;-59
2023/03/21 05:35:25;;;;;;;7.55;4.82;;;;;;;;;;5055379;28;20354;-59
2023/03/21 05:37:51;;;;;;;7.13;5.82;;;;;;;;;;5055644;28;20029;-60
2023/03/21 05:40:17;;;;;;;6.85;5.53;;;;;;;;;;5055152;28;20045;-61
2023/03/21 05:42:45;;;;;;;8.00;5.70;;;;;;;;;;5054366;28;20526;-60
2023/03/21 05:45:11;;;;;;;7.68;5.57;;;;;;;;;;5055078;28;20032;-58
2023/03/21 05:47:37;;;;;;;6.82;5.57;;;;;;;;;;5055454;28;20432;-60
2023/03/21 05:50:03;;;;;;;5.93;5.22;;;;;;;;;;5055053;28;20060;-59
2023/03/21 05:52:29;;;;;;;8.10;6.10;;;;;;;;;;5055133;28;20056;-60
2023/03/21 05:54:54;;;;;;;6.75;5.75;;;;;;;;;;5055039;28;20094;-61
2023/03/21 05:57:20;;;;;;;6.88;5.57;;;;;;;;;;5054973;28;20041;-59
2023/03/21 05:59:46;;;;;;;7.05;5.45;;;;;;;;;;5054993;28;20108;-60
2023/03/21 06:02:11;;;;;;;8.57;5.60;;;;;;;;;;5054275;28;20083;-59
2023/03/21 06:04:37;;;;;;;8.13;5.63;;;;;;;;;;5054752;28;20071;-61
2023/03/21 06:07:03;;;;;;;7.03;5.60;;;;;;;;;;5054809;28;20033;-59
2023/03/21 06:09:28;;;;;;;6.72;5.65;;;;;;;;;;5053392;28;20052;-59
2023/03/21 06:11:55;;;;;;;6.68;5.25;;;;;;;;;;5055006;28;20389;-59
2023/03/21 06:14:22;;;;;;;7.45;4.75;;;;;;;;;;5054628;28;20558;-59
2023/03/21 06:16:48;;;;;;;6.85;5.40;;;;;;;;;;5054928;28;20029;-59
2023/03/21 06:19:14;;;;;;;6.80;5.47;;;;;;;;;;5054487;28;20473;-59
2023/03/21 06:21:39;;;;;;;6.57;4.93;;;;;;;;;;5054433;28;20108;-60
2023/03/21 06:24:05;;;;;;;6.65;5.43;;;;;;;;;;5054298;28;20041;-59
2023/03/21 06:26:31;;;;;;;5.75;5.13;;;;;;;;;;5054336;28;20029;-59
2023/03/21 06:28:57;;;;;;;9.00;5.88;;;;;;;;;;5054233;28;20366;-59
2023/03/21 06:31:23;;;;;;;7.45;5.82;;;;;;;;;;5054185;28;20033;-59
2023/03/21 06:33:50;;;;;;;6.65;5.35;;;;;;;;;;5054149;28;20028;-59
2023/03/21 06:36:16;;;;;;;6.18;5.50;;;;;;;;;;5054185;28;20099;-59
2023/03/21 06:38:42;;;;;;;6.35;5.30;;;;;;;;;;5053944;28;20041;-59
2023/03/21 06:41:08;;;;;;;5.68;5.07;;;;;;;;;;5054112;28;20511;-59
2023/03/21 06:43:34;;;;;;;8.98;5.65;;;;;;;;;;5053960;28;20032;-59
2023/03/21 06:46:00;;;;;;;8.73;5.75;;;;;;;;;;5054026;28;20021;-59
2023/03/21 06:48:26;;;;;;;7.65;5.72;;;;;;;;;;5053995;28;20025;-59
2023/03/21 06:50:53;;;;;;;7.47;5.57;;;;;;;;;;5053891;28;20029;-59
2023/03/21 06:53:23;;;;;;;7.25;5.20;;;;;;;;;;5053844;28;20056;-62
2023/03/21 06:55:52;;;;;;;6.25;5.55;;;;;;;;;;5054146;28;20031;-59
2023/03/21 06:58:18;;;;;;;6.32;5.40;;;;;;;;;;5054077;28;20124;-59
2023/03/21 07:00:44;;;;;;;6.18;5.35;;;;;;;;;;5054021;28;20021;-60
2023/03/21 07:03:11;;;;;;;7.80;5.68;;;;;;;;;;5053633;28;20098;-60
2023/03/21 07:05:38;;;;;;;8.32;5.30;;;;;;;;;;5053955;28;20025;-59
2023/03/21 07:08:04;;;;;;;6.15;5.10;;;;;;;;;;5052435;28;20366;-59
2023/03/21 07:10:30;;;;;;;5.80;5.18;;;;;;;;;;5053468;28;20032;-59
2023/03/21 07:12:58;;;;;;;7.22;5.90;;;;;;;;;;5051329;28;20025;-59
2023/03/21 07:15:24;;;;;;;6.07;5.25;;;;;;;;;;5052179;28;20128;-59
2023/03/21 07:17:50;;;;;;;7.15;5.32;;;;;;;;;;5053343;28;20033;-59
2023/03/21 07:20:16;;;;;;;6.05;5.25;;;;;;;;;;5053425;28;20029;-58
2023/03/21 07:22:42;;;;;;;7.00;5.50;;;;;;;;;;5068707;28;20056;-61
2023/03/21 07:25:09;;;;;;;6.90;5.38;;;;;;;;;;5053464;28;20025;-59
2023/03/21 07:27:35;;;;;;;7.05;5.55;;;;;;;;;;5053393;28;20028;-60
2023/03/21 07:30:03;;;;;;;6.95;5.47;;;;;;;;;;5053092;28;20029;-58
2023/03/21 07:32:32;;;;;;;6.40;5.35;;;;;;;;;;5053152;28;20033;-58
2023/03/21 07:34:59;;;;;;;6.80;5.10;;;;;;;;;;5053340;28;20037;-60
2023/03/21 07:37:25;;;;;;;5.93;5.22;;;;;;;;;;5053234;28;20037;-59
2023/03/21 07:39:51;;;;;;;7.40;5.40;;;;;;;;;;5051639;28;20118;-59
2023/03/21 07:42:17;;;;;;;6.93;5.53;;;;;;;;;;5052912;28;20112;-59
2023/03/21 07:44:43;;;;;;;7.30;5.75;;;;;;;;;;5050150;28;20084;-57
2023/03/21 07:47:09;;;;;;;5.55;4.88;;;;;;;;;;5047178;28;20086;-57
2023/03/21 07:49:36;;;;;;;7.18;5.53;;;;;;;;;;5051633;28;20452;-59
2023/03/21 07:52:02;;;;;;;7.63;5.50;;;;;;;;;;5051072;28;20366;-62
2023/03/21 07:54:28;;;;;;;6.65;5.38;;;;;;;;;;5052268;28;20025;-61
2023/03/21 07:56:55;;;;;;;7.10;5.57;;;;;;;;;;5051015;28;20039;-59
2023/03/21 07:59:21;;;;;;;6.72;5.43;;;;;;;;;;5051910;28;20048;-60
2023/03/21 08:01:46;;;;;;;7.53;5.57;;;;;;;;;;5051698;28;20047;-60
2023/03/21 08:04:12;;;;;;;6.75;5.30;;;;;;;;;;5051521;28;20013;-59
2023/03/21 08:06:38;;;;;;;6.30;5.20;;;;;;;;;;5050236;28;20167;-62
2023/03/21 08:09:04;;;;;;;6.22;5.40;;;;;;;;;;5051395;28;20025;-61
2023/03/21 08:11:33;;;;;;;7.45;5.53;;;;;;;;;;5051228;28;20059;-66
2023/03/21 08:14:00;;;;;;;6.70;5.60;;;;;;;;;;5050486;28;20017;-59
2023/03/21 08:16:27;;;;;;;5.80;5.18;;;;;;;;;;5049974;28;20044;-65
2023/03/21 08:18:52;;;;;;;6.97;5.50;;;;;;;;;;5051566;28;20016;-61
2023/03/21 08:21:18;;;;;;;7.35;5.30;;;;;;;;;;5051496;28;20539;-61
2023/03/21 08:23:44;;;;;;;13.60;6.20;;;;;;;;;;5049470;28;20028;-62
2023/03/21 08:26:09;;;;;;;10.82;6.05;;;;;;;;;;5048284;28;20461;-59
2023/03/21 08:28:38;;;;;;;17.60;6.25;;;;;;;;;;5051121;28;20389;-61
2023/03/21 08:31:09;;;;;;;8.48;5.68;;;;;;;;;;5050791;28;20068;-64
2023/03/21 08:33:35;;;;;;;6.47;5.78;;;;;;;;;;5037207;28;20026;-67
2023/03/21 08:36:01;;;;;;;7.07;6.03;;;;;;;;;;5032485;28;20030;-63
2023/03/21 08:38:32;;;;;;;9.45;5.72;;;;;;;;;;5031712;28;20412;-59
2023/03/21 08:40:59;;;;;;;8.13;5.72;;;;;;;;;;5032070;28;20029;-59
2023/03/21 08:43:25;;;;;;;8.32;5.15;;;;;;;;;;5031544;28;20021;-61
2023/03/21 08:45:51;;;;;;;7.65;6.00;;;;;;;;;;5031190;28;20509;-59
2023/03/21 08:48:17;;;;;;;9.05;6.00;;;;;;;;;;5031582;28;20034;-60
2023/03/21 08:50:43;;;;;;;7.47;5.72;;;;;;;;;;5032084;28;20428;-60
2023/03/21 08:53:09;;;;;;;9.55;5.90;;;;;;;;;;5031081;28;20473;-60
2023/03/21 08:55:34;;;;;;;7.07;5.57;;;;;;;;;;5034891;28;20577;-61
2023/03/21 08:58:00;;;;;;;7.30;5.80;;;;;;;;;;5049918;28;20492;-59
2023/03/21 09:00:27;;;;;;;7.32;6.05;;;;;;;;;;5051822;28;20028;-60
2023/03/21 09:02:53;;;;;;;7.90;5.43;;;;;;;;;;5051992;28;20032;-59
2023/03/21 09:05:19;;;;;;;10.15;5.43;;;;;;;;;;5051847;28;20033;-59
2023/03/21 09:07:45;;;;;;;7.82;5.68;;;;;;;;;;5050238;28;20029;-67
2023/03/21 09:10:14;;;;;;;6.80;5.68;;;;;;;;;;5046694;28;20047;-62
2023/03/21 09:12:40;;;;;;;9.63;6.38;;;;;;;;;;5050192;28;20039;-60
2023/03/21 09:15:10;;;;;;;8.65;6.13;;;;;;;;;;5050269;28;20037;-61
2023/03/21 09:17:42;;;;;;;11.45;6.20;;;;;;;;;;5050142;28;20443;-60
2023/03/21 09:20:17;;;;;;;7.85;6.05;;;;;;;;;;5048782;28;20103;-65
2023/03/21 09:22:47;;;;;;;11.57;6.78;;;;;;;;;;5050404;28;20072;-64
2023/03/21 09:25:15;;;;;;;9.23;6.68;;;;;;;;;;5050191;28;20032;-59
2023/03/21 09:27:43;;;;;;;7.95;6.00;;;;;;;;;;5050067;28;20392;-65
2023/03/21 09:30:10;;;;;;;7.95;6.22;;;;;;;;;;5048277;28;20036;-60
2023/03/21 09:32:36;;;;;;;7.85;6.05;;;;;;;;;;5047950;28;20138;-61
2023/03/21 09:35:04;;;;;;;8.93;6.45;;;;;;;;;;5048570;28;20033;-59
2023/03/21 09:37:31;;;;;;;8.23;6.20;;;;;;;;;;5051610;28;20063;-59
2023/03/21 09:39:57;;;;;;;7.78;6.32;;;;;;;;;;5051557;28;20061;-60
2023/03/21 09:42:29;;;;;;;7.60;5.85;;;;;;;;;;5052965;28;20028;-59
2023/03/21 09:45:33;;;;;;;8.65;6.57;;;;;;;;;;5052258;28;20416;-59
2023/03/21 09:48:00;;;;;;;9.90;6.72;;;;;;;;;;5046678;28;20048;-59
2023/03/21 09:50:30;;;;;;;10.63;6.80;;;;;;;;;;5051535;28;20037;-59
2023/03/21 09:53:06;;;;;;;9.23;6.50;;;;;;;;;;5053889;28;20036;-60
2023/03/21 09:55:38;;;;;;;13.55;7.20;;;;;;;;;;5053472;28;20033;-60
2023/03/21 09:58:15;;;;;;;9.13;6.70;;;;;;;;;;5053653;28;20408;-59
2023/03/21 10:00:46;;;;;;;9.15;6.78;;;;;;;;;;5053292;28;20154;-59
2023/03/21 10:03:29;;;;;;;10.63;6.80;;;;;;;;;;5053443;28;20122;-61
2023/03/21 10:05:59;;;;;;;10.45;6.82;;;;;;;;;;5053262;28;20029;-59
2023/03/21 10:08:33;;;;;;;8.43;6.35;;;;;;;;;;5053261;28;20064;-60
2023/03/21 10:11:23;;;;;;;10.70;7.20;;;;;;;;;;5053326;28;20094;-61
2023/03/21 10:13:58;;;;;;;9.45;6.50;;;;;;;;;;5051631;28;20031;-61
2023/03/21 10:16:43;;;;;;;8.75;6.70;;;;;;;;;;5051371;28;20033;-63
2023/03/21 10:19:15;;;;;;;9.38;6.97;;;;;;;;;;5053374;28;20650;-66
2023/03/21 10:21:45;;;;;;;9.27;6.68;;;;;;;;;;5052931;28;20033;-63
2023/03/21 10:24:18;;;;;;;9.50;6.47;;;;;;;;;;5053272;28;20028;-65
2023/03/21 10:26:46;;;;;;;9.35;7.10;;;;;;;;;;5052742;28;20577;-59
2023/03/21 10:29:13;;;;;;;9.52;7.10;;;;;;;;;;5052851;28;20021;-60
2023/03/21 10:31:40;;;;;;;11.00;7.75;;;;;;;;;;5052726;28;20061;-62
2023/03/21 10:34:22;;;;;;;11.88;7.20;;;;;;;;;;5052702;28;20040;-60
2023/03/21 10:36:48;;;;;;;10.27;7.53;;;;;;;;;;5051463;28;20543;-61
2023/03/21 10:39:26;;;;;;;11.13;7.00;;;;;;;;;;5048452;28;20053;-64
2023/03/21 10:41:52;;;;;;;11.68;7.25;;;;;;;;;;5049908;28;20040;-60
2023/03/21 10:44:19;;;;;;;10.52;7.25;;;;;;;;;;5051254;28;20489;-60
2023/03/21 10:46:57;;;;;;;10.95;7.32;;;;;;;;;;5052004;28;20108;-63
2023/03/21 10:49:25;;;;;;;11.77;7.43;;;;;;;;;;5051582;28;20108;-61
2023/03/21 10:51:55;;;;;;;9.60;7.18;;;;;;;;;;5051694;28;20083;-60
2023/03/21 10:54:21;;;;;;;;;;;;;;;;;;5052316;28;20107;-60
2023/03/21 10:57:10;;;;;;;10.85;7.10;;;;;;;;;;5052176;28;19963;-62
2023/03/21 10:59:46;;;;;;;10.05;7.43;;;;;;;;;;5052414;28;20051;-60
2023/03/21 11:02:38;;;;;;;13.13;7.57;;;;;;;;;;5040660;28;20361;-61
2023/03/21 11:05:07;;;;;;;10.30;7.65;;;;;;;;;;5031017;28;20037;-61
2023/03/21 11:07:35;;;;;;;9.60;7.73;;;;;;;;;;5032441;28;20289;-62
2023/03/21 11:10:12;;;;;;;13.38;8.93;;;;;;;;;;5032216;28;20270;-66
2023/03/21 11:12:39;;;;;;;11.75;7.40;;;;;;;;;;5030764;28;20021;-61
2023/03/21 11:15:28;;;;;;;10.70;8.05;;;;;;;;;;5031950;28;20025;-60
2023/03/21 11:17:54;;;;;;;13.50;8.10;;;;;;;;;;5048393;28;20032;-61
2023/03/21 11:20:21;;;;;;;9.57;7.97;;;;;;;;;;5051879;28;20367;-60
2023/03/21 11:22:48;;;;;;;13.48;8.10;;;;;;;;;;5051714;28;20119;-60
2023/03/21 11:25:36;;;;;;;12.30;8.02;;;;;;;;;;5051731;28;20488;-61
2023/03/21 11:28:14;;;;;;;10.50;8.02;;;;;;;;;;5051741;28;20584;-60
2023/03/21 11:30:54;;;;;;;12.35;8.13;;;;;;;;;;5051473;28;20032;-61
2023/03/21 11:33:25;;;;;;;13.43;8.00;;;;;;;;;;5051526;28;20114;-60
2023/03/21 11:36:26;;;;;;;13.70;8.30;;;;;;;;;;5051536;28;20033;-60
2023/03/21 11:38:51;;;;;;;;;;;;;;;;;;5051717;28;20397;-60
2023/03/21 11:41:32;;;;;;;11.95;8.68;;;;;;;;;;5051496;28;19920;-61
2023/03/21 11:43:59;;;;;;;14.75;8.63;;;;;;;;;;5051137;28;20025;-60
2023/03/21 11:46:27;;;;;;;12.63;8.27;;;;;;;;;;5051615;28;20025;-59
2023/03/21 11:48:55;;;;;;;11.98;9.20;;;;;;;;;;5051192;28;20602;-60
2023/03/21 11:51:23;;;;;;;15.20;8.88;;;;;;;;;;5051084;28;20389;-59
2023/03/21 11:54:14;;;;;;;12.85;8.32;;;;;;;;;;5051164;28;20466;-60
2023/03/21 11:56:50;;;;;;;16.85;9.02;;;;;;;;;;5045010;28;20041;-61
2023/03/21 11:59:36;;;;;;;18.13;9.45;;;;;;;;;;5050792;28;20029;-61
2023/03/21 12:02:17;;;;;;;15.05;8.48;;;;;;;;;;5050314;28;20382;-62
2023/03/21 12:04:43;;;;;;;13.07;8.50;;;;;;;;;;5051040;28;20036;-60
2023/03/21 12:07:36;;;;;;;13.77;8.68;;;;;;;;;;5050940;28;20037;-60
2023/03/21 12:10:26;;;;;;;16.30;9.20;;;;;;;;;;5051217;28;20041;-61
2023/03/21 12:13:16;;;;;;;19.70;8.85;;;;;;;;;;5051204;28;20028;-61
2023/03/21 12:15:51;;;;;;;13.32;8.10;;;;;;;;;;5051178;28;20483;-61
2023/03/21 12:18:38;;;;;;;13.13;9.10;;;;;;;;;;5050738;28;20632;-60
2023/03/21 12:21:53;;;;;;;18.20;8.85;;;;;;;;;;5050715;28;20032;-61
2023/03/21 12:24:25;;;;;;;11.55;8.52;;;;;;;;;;5042091;28;20037;-61
2023/03/21 12:26:53;;;;;;;13.98;8.27;;;;;;;;;;5050597;28;20025;-63
2023/03/21 12:29:56;;;;;;;14.18;8.63;;;;;;;;;;5050825;28;20516;-61
2023/03/21 12:32:40;;;;;;;20.10;9.25;;;;;;;;;;5050964;28;20102;-63
2023/03/21 12:35:21;;;;;;;17.35;8.77;;;;;;;;;;5051034;28;20037;-61
2023/03/21 12:38:02;;;;;;;17.17;9.60;;;;;;;;;;5066046;28;20049;-64
2023/03/21 12:40:52;;;;;;;15.57;9.00;;;;;;;;;;5050057;28;20493;-63
2023/03/21 12:43:18;;;;;;;;;;;;;;;;;;5051305;28;20661;-60
2023/03/21 12:45:47;;;;;;;30.67;12.50;;;;;;;;;;5049276;28;19970;-60
2023/03/21 12:48:46;;;;;;;33.53;11.05;;;;;;;;;;5050500;28;20674;-61
2023/03/21 12:51:18;;;;;;;30.55;11.45;;;;;;;;;;5050497;28;20496;-60
2023/03/21 12:53:55;;;;;;;31.85;11.40;;;;;;;;;;5050657;28;20396;-61
2023/03/21 12:56:33;;;;;;;24.67;12.35;;;;;;;;;;5050779;28;20044;-60
2023/03/21 12:59:35;;;;;;;39.05;13.05;;;;;;;;;;5050620;28;20029;-60
2023/03/21 13:02:30;;;;;;;58.88;17.15;;;;;;;;;;5050717;28;20039;-60
2023/03/21 13:05:18;;;;;;;59.05;16.60;;;;;;;;;;5050076;28;20546;-63
2023/03/21 13:07:51;;;;;;;53.33;14.98;;;;;;;;;;5050404;28;20029;-60
2023/03/21 13:10:23;;;;;;;46.35;13.95;;;;;;;;;;5050451;28;20033;-62
2023/03/21 13:13:15;;;;;;;29.80;9.15;;;;;;;;;;5054752;28;20416;-63
2023/03/21 13:16:00;;;;;;;24.40;9.93;;;;;;;;;;5054145;28;20033;-64
2023/03/21 13:19:02;;;;;;;20.67;8.02;;;;;;;;;;5054208;28;20104;-63
2023/03/21 13:21:30;;;;;;;37.47;7.25;;;;;;;;;;5054215;28;20033;-64
2023/03/21 13:24:03;;;;;;;49.75;7.40;;;;;;;;;;5054350;28;20495;-61
2023/03/21 13:26:40;;;;;;;35.03;6.57;;;;;;;;;;5054006;28;20028;-60
2023/03/21 13:29:19;;;;;;;30.77;7.20;;;;;;;;;;5054011;28;20025;-61
2023/03/21 13:31:48;;;;;;;32.10;6.93;;;;;;;;;;5069125;28;20086;-64
2023/03/21 13:34:13;;;;;;;20.90;5.25;;;;;;;;;;5054072;28;20075;-64
2023/03/21 13:36:41;;;;;;;25.38;5.25;;;;;;;;;;5054116;28;20433;-63
2023/03/21 13:39:20;;;;;;;18.55;5.00;;;;;;;;;;5053417;28;20045;-64
2023/03/21 13:41:50;;;;;;;14.68;4.70;;;;;;;;;;5049801;28;20071;-63
2023/03/21 13:44:30;;;;;;;13.57;4.13;;;;;;;;;;5053607;28;20071;-61
2023/03/21 13:47:03;;;;;;;11.45;3.97;;;;;;;;;;5053817;28;20021;-62
2023/03/21 13:49:36;;;;;;;18.27;4.32;;;;;;;;;;5053513;28;20032;-66
2023/03/21 13:52:26;;;;;;;9.20;3.50;;;;;;;;;;5053463;28;20489;-61
2023/03/21 13:54:53;;;;;;;12.02;4.30;;;;;;;;;;5053404;28;20060;-66
2023/03/21 13:57:39;;;;;;;13.07;3.97;;;;;;;;;;5051726;28;20033;-65
2023/03/21 14:00:38;;;;;;;6.47;3.45;;;;;;;;;;5053514;28;20029;-62
2023/03/21 14:03:12;;;;;;;4.88;3.38;;;;;;;;;;5048469;28;20048;-61
2023/03/21 14:05:38;;;;;;;5.22;3.20;;;;;;;;;;5053492;28;20097;-62
2023/03/21 14:08:08;;;;;;;8.38;3.13;;;;;;;;;;5053201;28;20473;-61
2023/03/21 14:10:46;;;;;;;7.60;3.35;;;;;;;;;;5051806;28;20033;-62
2023/03/21 14:13:18;;;;;;;7.63;3.10;;;;;;;;;;5051704;28;20090;-62
2023/03/21 14:15:47;;;;;;;3.30;2.65;;;;;;;;;;5053458;28;20027;-62
2023/03/21 14:18:16;;;;;;;4.45;2.80;;;;;;;;;;5053010;28;20040;-61
2023/03/21 14:20:42;;;;;;;11.52;3.35;;;;;;;;;;5052889;28;20099;-61
2023/03/21 14:23:13;;;;;;;6.10;2.55;;;;;;;;;;5052441;28;20029;-61
2023/03/21 14:25:41;;;;;;;10.45;2.75;;;;;;;;;;5052976;28;20107;-61
2023/03/21 14:28:35;;;;;;;6.07;2.88;;;;;;;;;;5052818;28;20693;-62
2023/03/21 14:31:01;;;;;;;8.68;3.05;;;;;;;;;;5047929;28;20045;-62
2023/03/21 14:33:31;;;;;;;9.52;3.05;;;;;;;;;;5052844;28;20029;-61
2023/03/21 14:36:01;;;;;;;7.20;2.60;;;;;;;;;;5053008;28;20374;-62
2023/03/21 14:38:33;;;;;;;5.97;2.33;;;;;;;;;;5052915;28;20040;-62
2023/03/21 14:41:02;;;;;;;9.02;2.40;;;;;;;;;;5051313;28;20106;-64
2023/03/21 14:43:29;;;;;;;8.90;2.47;;;;;;;;;;5067953;28;20032;-62
2023/03/21 14:45:56;;;;;;;8.88;2.47;;;;;;;;;;5033325;28;20057;-62
2023/03/21 14:48:33;;;;;;;3.17;2.47;;;;;;;;;;5032456;28;20025;-62
2023/03/21 14:51:09;;;;;;;6.40;2.35;;;;;;;;;;5032801;28;20385;-62
2023/03/21 14:53:38;;;;;;;4.97;2.28;;;;;;;;;;5032208;28;20497;-62
2023/03/21 14:56:15;;;;;;;3.53;2.60;;;;;;;;;;5032561;28;20044;-62
2023/03/21 14:58:44;;;;;;;7.60;2.60;;;;;;;;;;5032372;28;20079;-62
2023/03/21 15:01:25;;;;;;;7.00;2.30;;;;;;;;;;5032351;28;20036;-63
2023/03/21 15:03:51;;;;;;;9.57;2.15;;;;;;;;;;5032142;28;20025;-61
2023/03/21 15:06:17;;;;;;;6.07;2.20;;;;;;;;;;5032146;28;20029;-61